Time;durP1;ratioP1;P1;durP2;ratioP2;P2;SDS_P1;SDS_P2;PMS_P1;PMS_P2;Temp;Humidity;BMP_temperature;BMP_pressure;BME280_temperature;BME280_humidity;BME280_pressure;Samples;Min_cycle;Max_cycle;Signal;HPM_P1;HPM_P2
2022/09/16 00:01:48;;;;;;;4.55;1.27;;;;;;;16.55;62.03;99567.81;10228407;28;20055;-73
2022/09/16 00:06:49;;;;;;;4.03;1.00;;;;;;;16.62;62.84;99578.69;10237515;28;20062;-75
2022/09/16 00:11:50;;;;;;;3.53;1.08;;;;;;;16.71;62.12;99566.00;10229394;28;20055;-74
2022/09/16 00:16:52;;;;;;;5.88;1.27;;;;;;;16.73;61.23;99570.19;10230850;28;20619;-76
2022/09/16 00:21:53;;;;;;;2.58;1.00;;;;;;;16.59;62.20;99560.25;10238619;28;20055;-74
2022/09/16 00:26:54;;;;;;;2.38;1.20;;;;;;;16.58;63.33;99558.56;10237798;28;20070;-73
2022/09/16 00:31:58;;;;;;;2.90;0.80;;;;;;;16.64;61.04;99559.72;10247295;28;20043;-75
2022/09/16 00:37:02;;;;;;;3.47;0.98;;;;;;;16.40;60.82;99554.31;10242795;28;20779;-74
2022/09/16 00:42:04;;;;;;;3.53;0.80;;;;;;;16.31;61.57;99559.94;10238027;28;20062;-76
2022/09/16 00:47:05;;;;;;;3.17;1.23;;;;;;;16.16;61.90;99557.19;10235285;28;20047;-75
2022/09/16 00:52:07;;;;;;;2.22;1.08;;;;;;;15.99;62.78;99557.25;10238648;28;20051;-74
2022/09/16 00:57:11;;;;;;;2.17;0.75;;;;;;;16.04;62.21;99560.25;10243346;28;20059;-78
2022/09/16 01:02:16;;;;;;;1.83;0.90;;;;;;;16.01;62.02;99554.41;10240379;28;20529;-75
2022/09/16 01:07:46;;;;;;;5.43;1.27;;;;;;;15.84;62.36;99559.84;10234891;28;20169;-77
2022/09/16 01:12:58;;;;;;;4.35;1.38;;;;;;;16.08;63.16;99563.44;10248627;28;20145;-76
2022/09/16 01:18:18;;;;;;;3.90;0.73;;;;;;;16.02;62.44;99566.81;10239715;28;20074;-74
2022/09/16 01:23:40;;;;;;;3.60;1.10;;;;;;;16.18;62.79;99571.25;10236604;28;20047;-74
2022/09/16 01:28:53;;;;;;;1.88;0.95;;;;;;;16.20;60.64;99563.88;10236771;28;20099;-74
2022/09/16 01:33:59;;;;;;;2.67;0.60;;;;;;;16.04;61.65;99551.38;10238478;28;20047;-75
2022/09/16 01:39:14;;;;;;;3.42;0.82;;;;;;;15.97;61.92;99558.44;10241963;28;20050;-74
2022/09/16 01:44:23;;;;;;;3.22;0.60;;;;;;;16.10;61.49;99568.63;10233358;28;20062;-75
2022/09/16 01:49:24;;;;;;;2.72;0.60;;;;;;;15.94;61.44;99565.00;10233225;28;20043;-75
2022/09/16 01:54:39;;;;;;;3.40;0.47;;;;;;;16.02;60.10;99573.03;10233428;28;20054;-75
2022/09/16 01:59:53;;;;;;;1.92;0.45;;;;;;;15.98;62.34;99565.50;10238853;28;20065;-75
2022/09/16 02:04:56;;;;;;;2.63;0.75;;;;;;;16.12;61.41;99555.84;10233221;28;20052;-74
2022/09/16 02:10:07;;;;;;;2.40;0.70;;;;;;;16.17;61.17;99565.06;10232175;28;20055;-74
2022/09/16 02:15:17;;;;;;;3.15;0.80;;;;;;;16.20;61.23;99551.28;10228134;28;20445;-74
2022/09/16 02:20:24;;;;;;;3.85;0.82;;;;;;;16.00;60.11;99561.63;10247582;28;20055;-74
2022/09/16 02:25:28;;;;;;;1.38;0.60;;;;;;;16.07;61.01;99559.06;10239995;28;20051;-75
2022/09/16 02:30:30;;;;;;;3.90;0.90;;;;;;;15.96;60.36;99557.63;10230388;28;20179;-74
2022/09/16 02:35:35;;;;;;;2.38;0.70;;;;;;;15.85;60.43;99571.41;10234056;28;20055;-77
2022/09/16 02:40:45;;;;;;;3.08;0.50;;;;;;;15.71;60.60;99563.03;10257776;28;20054;-78
2022/09/16 02:45:55;;;;;;;5.07;0.70;;;;;;;15.88;61.52;99566.56;10252614;28;20056;-76
2022/09/16 02:51:14;;;;;;;3.45;0.98;;;;;;;15.74;61.35;99559.19;10236192;28;20061;-75
2022/09/16 02:56:35;;;;;;;2.95;0.57;;;;;;;15.68;62.62;99559.88;10231564;28;20477;-75
2022/09/16 03:01:40;;;;;;;1.50;0.55;;;;;;;15.76;63.30;99557.16;10232263;28;20051;-75
2022/09/16 03:06:43;;;;;;;2.28;0.82;;;;;;;15.75;63.07;99560.88;10232186;28;20143;-75
2022/09/16 03:11:57;;;;;;;5.43;0.63;;;;;;;15.72;62.01;99561.22;10235788;28;21665;-74
2022/09/16 03:17:06;;;;;;;3.17;1.05;;;;;;;15.62;64.41;99549.84;10255310;28;20046;-76
2022/09/16 03:22:14;;;;;;;2.60;0.77;;;;;;;15.52;63.63;99550.91;10235356;28;20062;-74
2022/09/16 03:27:25;;;;;;;3.30;0.70;;;;;;;15.64;63.83;99550.50;10226377;28;20320;-75
2022/09/16 03:32:32;;;;;;;5.65;0.70;;;;;;;15.63;63.31;99540.81;10228569;28;20047;-74
2022/09/16 03:37:38;;;;;;;3.40;0.75;;;;;;;15.61;62.90;99537.44;10232589;28;20800;-75
2022/09/16 03:42:42;;;;;;;4.35;1.00;;;;;;;15.56;62.61;99552.19;10231007;28;20036;-75
2022/09/16 03:47:45;;;;;;;3.33;1.02;;;;;;;15.66;63.02;99545.81;10247368;28;20042;-77
2022/09/16 03:52:46;;;;;;;3.42;0.93;;;;;;;15.68;63.85;99536.56;10229071;28;20051;-73
2022/09/16 03:57:48;;;;;;;1.88;0.77;;;;;;;15.73;62.82;99536.03;10232215;28;20057;-74
2022/09/16 04:02:49;;;;;;;2.33;0.55;;;;;;;15.71;62.66;99543.44;10228557;28;20442;-75
2022/09/16 04:07:50;;;;;;;3.35;0.98;;;;;;;15.60;63.55;99543.81;10227521;28;20129;-75
2022/09/16 04:12:56;;;;;;;5.13;0.95;;;;;;;15.61;63.05;99538.28;10231804;28;20058;-75
2022/09/16 04:17:59;;;;;;;3.33;0.80;;;;;;;15.50;64.81;99533.28;10227799;28;20058;-75
2022/09/16 04:23:00;;;;;;;2.25;0.70;;;;;;;15.67;64.54;99539.44;10230616;28;20775;-75
2022/09/16 04:28:02;;;;;;;6.55;1.17;;;;;;;15.44;64.38;99526.78;10215864;28;20066;-74
2022/09/16 04:33:03;;;;;;;2.42;1.05;;;;;;;15.43;65.81;99533.13;10216618;28;20561;-74
2022/09/16 04:38:04;;;;;;;3.72;1.27;;;;;;;15.56;65.19;99533.44;10217951;28;20047;-74
2022/09/16 04:43:06;;;;;;;3.05;0.88;;;;;;;15.52;65.75;99534.81;10220970;28;20047;-76
2022/09/16 04:48:07;;;;;;;6.15;1.58;;;;;;;15.65;65.13;99544.13;10221397;28;20050;-73
2022/09/16 04:53:08;;;;;;;3.10;1.58;;;;;;;15.51;64.46;99530.44;10222641;28;20054;-75
2022/09/16 04:58:10;;;;;;;4.15;1.23;;;;;;;15.49;65.53;99534.28;10230845;28;20046;-73
2022/09/16 05:03:11;;;;;;;2.83;0.90;;;;;;;15.45;66.75;99547.22;10220509;28;20055;-76
2022/09/16 05:08:12;;;;;;;5.53;1.20;;;;;;;15.50;66.69;99542.16;10227812;28;20090;-78
2022/09/16 05:13:14;;;;;;;3.05;1.13;;;;;;;15.53;66.74;99551.72;10224531;28;20152;-77
2022/09/16 05:18:15;;;;;;;4.57;0.82;;;;;;;15.49;67.40;99556.59;10230941;28;20057;-78
2022/09/16 05:23:16;;;;;;;4.47;0.95;;;;;;;15.49;66.93;99555.75;10228659;28;20066;-80
2022/09/16 05:28:18;;;;;;;3.45;0.98;;;;;;;15.45;66.77;99549.09;10241966;28;20062;-78
2022/09/16 05:33:19;;;;;;;5.63;1.23;;;;;;;15.35;66.87;99543.91;10225116;28;20051;-78
2022/09/16 05:38:20;;;;;;;2.90;1.00;;;;;;;15.36;67.01;99545.59;10231294;28;20046;-77
2022/09/16 05:43:22;;;;;;;4.05;1.20;;;;;;;15.33;66.75;99551.28;10232804;28;20089;-80
2022/09/16 05:48:24;;;;;;;3.85;1.17;;;;;;;15.36;66.64;99535.69;10238488;28;20718;-78
2022/09/16 05:53:28;;;;;;;5.47;1.15;;;;;;;15.46;65.99;99548.06;10252758;28;20058;-79
2022/09/16 05:58:31;;;;;;;5.15;1.55;;;;;;;15.52;66.29;99545.53;10235992;28;20047;-76
2022/09/16 06:03:34;;;;;;;4.40;1.33;;;;;;;15.62;66.59;99555.22;10236622;28;20138;-75
2022/09/16 06:08:36;;;;;;;5.55;1.90;;;;;;;15.72;66.02;99553.16;10231433;28;20050;-76
2022/09/16 06:13:37;;;;;;;7.05;1.88;;;;;;;15.81;68.24;99552.16;10233733;28;20054;-75
2022/09/16 06:18:39;;;;;;;5.03;1.58;;;;;;;15.88;66.87;99545.09;10245530;28;20550;-73
2022/09/16 06:23:41;;;;;;;4.32;1.10;;;;;;;15.92;65.64;99542.03;10243999;28;20618;-75
2022/09/16 06:28:43;;;;;;;4.63;1.30;;;;;;;16.02;65.99;99539.97;10251574;28;20066;-76
2022/09/16 06:33:44;;;;;;;10.63;2.03;;;;;;;16.03;64.84;99549.69;10232058;28;20207;-72
2022/09/16 06:38:47;;;;;;;4.53;1.33;;;;;;;15.90;65.58;99547.59;10236398;28;20047;-79
2022/09/16 06:43:51;;;;;;;6.50;1.35;;;;;;;16.01;65.39;99554.41;10231374;28;20055;-74
2022/09/16 06:48:55;;;;;;;3.75;1.15;;;;;;;15.93;65.34;99541.00;10232611;28;20131;-79
2022/09/16 06:54:01;;;;;;;6.43;1.40;;;;;;;16.01;65.29;99544.50;10229984;28;20050;-79
2022/09/16 06:59:04;;;;;;;5.43;1.38;;;;;;;16.03;65.34;99541.63;10232474;28;20059;-77
2022/09/16 07:04:12;;;;;;;4.32;1.20;;;;;;;15.98;65.79;99539.47;10250624;28;20038;-77
2022/09/16 07:09:13;;;;;;;3.22;1.33;;;;;;;16.15;64.85;99532.16;10235192;28;20145;-75
2022/09/16 07:14:15;;;;;;;5.18;1.73;;;;;;;16.50;64.81;99537.97;10237885;28;20071;-78
2022/09/16 07:19:16;;;;;;;8.02;1.45;;;;;;;16.72;63.88;99546.19;10227749;28;20062;-75
2022/09/16 07:24:18;;;;;;;5.95;1.50;;;;;;;16.32;62.44;99540.09;10230696;28;20058;-78
2022/09/16 07:29:19;;;;;;;4.05;0.85;;;;;;;16.18;63.23;99547.94;10231571;28;20054;-77
2022/09/16 07:34:21;;;;;;;6.22;1.15;;;;;;;16.22;61.66;99535.81;10225694;28;20042;-77
2022/09/16 07:39:24;;;;;;;5.68;0.90;;;;;;;16.05;61.14;99547.69;10237860;28;20042;-74
2022/09/16 07:44:25;;;;;;;6.17;0.70;;;;;;;16.49;60.29;99541.69;10223331;28;20091;-75
2022/09/16 07:49:27;;;;;;;5.20;1.40;;;;;;;16.72;59.83;99539.00;10219117;28;20470;-73
2022/09/16 07:54:28;;;;;;;1.90;0.90;;;;;;;17.11;56.84;99540.69;10225919;28;20475;-74
2022/09/16 07:59:29;;;;;;;3.45;1.38;;;;;;;17.15;56.57;99549.19;10225719;28;20094;-77
2022/09/16 08:04:31;;;;;;;6.32;0.90;;;;;;;17.35;53.71;99551.34;10242985;28;20254;-76
2022/09/16 08:09:32;;;;;;;6.55;1.25;;;;;;;16.55;56.21;99546.31;10227366;28;20080;-76
2022/09/16 08:14:43;;;;;;;3.08;0.82;;;;;;;16.59;56.11;99550.34;10228385;28;20419;-76
2022/09/16 08:19:44;;;;;;;4.22;1.25;;;;;;;17.03;56.58;99562.25;10227081;28;20450;-79
2022/09/16 08:24:45;;;;;;;3.13;1.00;;;;;;;17.31;54.90;99557.09;10231506;28;20077;-74
2022/09/16 08:29:47;;;;;;;2.25;0.90;;;;;;;17.78;55.28;99563.13;10230867;28;20047;-75
2022/09/16 08:34:48;;;;;;;2.30;1.17;;;;;;;17.78;51.97;99556.91;10222480;28;20062;-75
2022/09/16 08:39:50;;;;;;;4.35;1.20;;;;;;;18.42;52.00;99558.06;10232742;28;21414;-80
2022/09/16 08:45:05;;;;;;;3.80;1.25;;;;;;;19.14;49.93;99551.72;10237651;28;20494;-75
2022/09/16 08:50:29;;;;;;;6.32;1.00;;;;;;;18.02;49.57;99558.47;10242741;28;20070;-75
2022/09/16 08:55:38;;;;;;;5.87;0.90;;;;;;;17.19;51.66;99553.19;10238786;28;20073;-75
2022/09/16 09:00:43;;;;;;;2.88;0.85;;;;;;;17.26;52.77;99556.84;10242385;28;20059;-75
2022/09/16 09:05:56;;;;;;;2.78;0.60;;;;;;;18.19;49.72;99561.78;10246839;28;20057;-73
2022/09/16 09:11:14;;;;;;;1.77;0.40;;;;;;;18.99;49.10;99556.34;10238784;28;20055;-74
2022/09/16 09:16:39;;;;;;;2.25;0.50;;;;;;;19.65;47.15;99557.81;10232773;28;20294;-74
2022/09/16 09:21:50;;;;;;;2.35;0.60;;;;;;;19.50;45.24;99555.22;10228547;28;20061;-74
2022/09/16 09:27:21;;;;;;;5.75;0.60;;;;;;;19.08;45.03;99547.94;10228957;28;20728;-75
2022/09/16 09:32:39;;;;;;;2.10;0.40;;;;;;;19.80;44.78;99541.50;10231656;28;20062;-74
2022/09/16 09:38:17;;;;;;;2.20;0.95;;;;;;;19.84;41.98;99542.78;10229896;28;20118;-78
2022/09/16 09:43:34;;;;;;;1.42;0.60;;;;;;;19.84;44.13;99540.91;10232000;28;20050;-75
2022/09/16 09:48:47;;;;;;;3.40;0.70;;;;;;;19.67;42.81;99535.00;10230361;28;20050;-79
2022/09/16 09:53:53;;;;;;;4.10;0.63;;;;;;;20.46;42.92;99544.41;10228327;28;20053;-73
2022/09/16 09:59:07;;;;;;;1.05;0.40;;;;;;;20.66;41.82;99538.25;10230497;28;20062;-75
2022/09/16 10:04:13;;;;;;;;;;;;;;;19.86;43.42;99529.91;10238976;28;20365;-76
2022/09/16 10:09:16;;;;;;;2.47;0.77;;;;;;;20.71;40.29;99522.22;10228200;28;19918;-75
2022/09/16 10:14:24;;;;;;;3.27;0.20;;;;;;;19.41;43.03;99522.16;10227909;28;20387;-76
2022/09/16 10:19:27;;;;;;;4.22;0.50;;;;;;;19.04;47.08;99529.63;10223480;28;20050;-75
2022/09/16 10:24:32;;;;;;;4.20;0.53;;;;;;;19.08;44.91;99528.22;10228202;28;20055;-72
2022/09/16 10:29:33;;;;;;;4.00;0.52;;;;;;;18.44;45.91;99529.09;10226714;28;20050;-75
2022/09/16 10:34:41;;;;;;;4.47;0.60;;;;;;;18.07;46.70;99529.13;10227867;28;20042;-75
2022/09/16 10:39:48;;;;;;;3.22;0.60;;;;;;;18.17;47.12;99531.50;10228989;28;20091;-75
2022/09/16 10:44:52;;;;;;;2.63;0.50;;;;;;;18.19;48.00;99532.16;10233424;28;20146;-72
2022/09/16 10:49:57;;;;;;;;;;;;;;;18.10;48.12;99519.81;10234513;28;20057;-70
2022/09/16 10:55:18;;;;;;;2.55;0.65;;;;;;;18.48;48.40;99524.97;10230387;28;19926;-74
2022/09/16 11:00:27;;;;;;;3.90;0.40;;;;;;;18.89;48.03;99527.03;10230556;28;20069;-76
2022/09/16 11:05:45;;;;;;;2.67;0.38;;;;;;;18.57;47.33;99523.84;10230389;28;20066;-74
2022/09/16 11:11:00;;;;;;;3.63;0.52;;;;;;;21.03;43.41;99527.81;10236835;28;20046;-75
2022/09/16 11:16:49;;;;;;;2.42;0.32;;;;;;;26.60;32.47;99512.72;10233269;28;20047;-77
2022/09/16 11:22:06;;;;;;;5.10;0.50;;;;;;;23.98;35.09;99524.81;10230307;28;20054;-74
2022/09/16 11:27:21;;;;;;;3.10;0.63;;;;;;;24.14;36.42;99523.38;10228982;28;20047;-74
2022/09/16 11:32:50;;;;;;;0.95;0.40;;;;;;;22.18;39.49;99521.84;10227277;28;20458;-75
2022/09/16 11:38:09;;;;;;;1.90;0.45;;;;;;;21.75;40.61;99517.03;10202155;28;20058;-76
2022/09/16 11:43:39;;;;;;;3.95;0.60;;;;;;;20.60;41.17;99526.34;10225198;28;24780;-77
2022/09/16 11:49:10;;;;;;;1.80;0.43;;;;;;;19.43;43.86;99523.66;10229259;28;20050;-77
2022/09/16 11:54:31;;;;;;;2.40;0.45;;;;;;;18.61;47.02;99538.56;10243616;28;20069;-72
2022/09/16 12:00:00;;;;;;;1.83;0.35;;;;;;;17.54;56.29;99558.03;10249022;28;20066;-75
2022/09/16 12:05:21;;;;;;;3.03;0.50;;;;;;;17.24;59.54;99550.78;10220534;28;21089;-75
2022/09/16 12:10:27;;;;;;;1.67;0.40;;;;;;;16.96;59.41;99559.47;10218766;28;20051;-78
2022/09/16 12:15:45;;;;;;;4.15;0.70;;;;;;;16.86;61.08;99542.72;10243810;28;20423;-75
2022/09/16 12:20:52;;;;;;;3.55;0.75;;;;;;;17.04;62.84;99530.81;10232060;28;20055;-76
2022/09/16 12:26:17;;;;;;;1.50;0.80;;;;;;;17.32;60.92;99539.09;10225084;28;20073;-77
2022/09/16 12:31:46;;;;;;;2.17;0.73;;;;;;;17.55;63.80;99525.56;10222992;28;20628;-78
2022/09/16 12:36:57;;;;;;;2.33;0.77;;;;;;;18.66;60.08;99538.00;10217769;28;20077;-77
2022/09/16 12:42:20;;;;;;;3.58;1.00;;;;;;;19.75;57.62;99526.69;10221908;28;20047;-76
2022/09/16 12:47:42;;;;;;;2.60;0.50;;;;;;;22.03;49.31;99521.31;10231213;28;20067;-78
2022/09/16 12:53:02;;;;;;;1.20;0.28;;;;;;;29.79;33.70;99516.09;10235921;28;20050;-77
2022/09/16 12:58:20;;;;;;;2.03;0.47;;;;;;;31.68;30.37;99506.25;10234688;28;20050;-76
2022/09/16 13:03:27;;;;;;;1.05;0.20;;;;;;;34.53;25.62;99498.44;10241837;28;20573;-76
2022/09/16 13:08:32;;;;;;;0.90;0.30;;;;;;;35.33;24.22;99492.09;10238020;28;20086;-79
2022/09/16 13:13:41;;;;;;;2.42;0.30;;;;;;;35.52;23.53;99483.66;10230517;28;20062;-78
2022/09/16 13:18:49;;;;;;;2.35;0.20;;;;;;;34.82;22.08;99480.84;10244553;28;20070;-79
2022/09/16 13:23:59;;;;;;;0.70;0.20;;;;;;;30.80;26.77;99485.53;10227553;28;20051;-77
2022/09/16 13:29:00;;;;;;;0.88;0.10;;;;;;;27.52;33.83;99478.63;10235579;28;20050;-77
2022/09/16 13:34:15;;;;;;;4.40;0.95;;;;;;;25.92;34.17;99479.84;10246149;28;20467;-78
2022/09/16 13:39:37;;;;;;;5.80;0.45;;;;;;;24.29;36.24;99468.56;10245101;28;20046;-74
2022/09/16 13:44:38;;;;;;;4.35;0.38;;;;;;;23.51;39.35;99482.97;10233700;28;20848;-75
2022/09/16 13:49:42;;;;;;;2.10;0.25;;;;;;;23.75;38.22;99481.19;10233650;28;20058;-78
2022/09/16 13:54:52;;;;;;;9.80;0.90;;;;;;;22.41;40.01;99480.66;10236003;28;20062;-74
2022/09/16 14:00:11;;;;;;;2.83;0.40;;;;;;;21.38;42.57;99484.25;10230070;28;20105;-74
2022/09/16 14:05:31;;;;;;;1.23;0.30;;;;;;;20.61;42.26;99475.78;10229413;28;20077;-74
2022/09/16 14:10:56;;;;;;;3.90;0.55;;;;;;;20.04;45.32;99465.34;10246786;28;20054;-76
2022/09/16 14:15:58;;;;;;;3.90;0.68;;;;;;;19.75;47.65;99455.69;10233973;28;20066;-76
2022/09/16 14:21:05;;;;;;;3.05;0.40;;;;;;;19.64;47.51;99454.41;10230659;28;20530;-74
2022/09/16 14:26:33;;;;;;;6.97;0.57;;;;;;;19.38;47.93;99450.56;10232551;28;20046;-76
2022/09/16 14:31:36;;;;;;;2.95;0.60;;;;;;;19.50;46.85;99463.47;10233104;28;20051;-74
2022/09/16 14:36:39;;;;;;;2.15;0.80;;;;;;;20.00;46.86;99453.28;10228210;28;20063;-74
2022/09/16 14:41:54;;;;;;;3.92;0.45;;;;;;;20.19;46.27;99451.66;10222697;28;20569;-74
2022/09/16 14:47:24;;;;;;;3.30;0.43;;;;;;;20.02;44.31;99451.22;10224803;28;20051;-76
2022/09/16 14:52:54;;;;;;;1.40;0.32;;;;;;;19.56;44.94;99449.16;10215904;28;20193;-76
2022/09/16 14:57:57;;;;;;;3.03;0.47;;;;;;;19.27;47.31;99455.69;10220586;28;20116;-75
2022/09/16 15:03:11;;;;;;;2.42;0.80;;;;;;;19.33;49.03;99442.22;10218095;28;20059;-75
2022/09/16 15:08:24;;;;;;;1.55;0.30;;;;;;;19.08;48.63;99464.31;10225296;28;20081;-75
2022/09/16 15:13:28;;;;;;;0.95;0.30;;;;;;;19.39;50.29;99465.69;10221449;28;20136;-73
2022/09/16 15:18:33;;;;;;;1.35;0.40;;;;;;;19.48;46.08;99476.34;10230803;28;20062;-73
2022/09/16 15:23:38;;;;;;;1.75;0.30;;;;;;;18.93;46.44;99508.59;10231716;28;20047;-76
2022/09/16 15:28:52;;;;;;;0.63;0.20;;;;;;;17.93;47.97;99501.22;10227682;28;20461;-75
2022/09/16 15:33:54;;;;;;;0.70;0.35;;;;;;;17.02;49.89;99508.66;10226469;28;20890;-77
2022/09/16 15:38:57;;;;;;;0.65;0.13;;;;;;;16.41;52.55;99517.56;10222908;28;20404;-78
2022/09/16 15:43:59;;;;;;;0.65;0.25;;;;;;;16.11;53.64;99512.06;10227428;28;20696;-77
2022/09/16 15:49:01;;;;;;;3.33;0.10;;;;;;;16.37;52.20;99510.88;10232737;28;20038;-77
2022/09/16 15:54:14;;;;;;;1.85;0.20;;;;;;;16.36;52.25;99530.69;10226893;28;20050;-76
2022/09/16 15:59:32;;;;;;;0.85;0.10;;;;;;;16.13;54.89;99531.50;10232839;28;20528;-82
2022/09/16 16:04:34;;;;;;;0.45;0.10;;;;;;;15.98;56.40;99531.44;10225689;28;20058;-75
2022/09/16 16:09:41;;;;;;;0.15;0.10;;;;;;;15.89;58.32;99536.00;10230166;28;20553;-76
2022/09/16 16:14:43;;;;;;;0.68;0.10;;;;;;;16.07;58.20;99542.97;10225088;28;20054;-78
2022/09/16 16:19:49;;;;;;;1.27;0.32;;;;;;;16.00;57.93;99537.47;10225515;28;20387;-79
2022/09/16 16:24:50;;;;;;;0.80;0.17;;;;;;;16.16;55.17;99523.09;10225021;28;20055;-77
2022/09/16 16:29:51;;;;;;;1.40;0.10;;;;;;;15.85;56.18;99526.66;10225489;28;20506;-76
2022/09/16 16:34:56;;;;;;;1.17;0.20;;;;;;;15.66;57.12;99519.00;10229872;28;20471;-76
2022/09/16 16:39:58;;;;;;;0.77;0.28;;;;;;;15.74;56.45;99508.22;10247688;28;20466;-76
2022/09/16 16:44:59;;;;;;;1.75;0.25;;;;;;;15.71;58.37;99506.72;10246201;28;20059;-76
2022/09/16 16:50:00;;;;;;;1.58;0.47;;;;;;;15.69;58.46;99514.09;10237524;28;20145;-80
2022/09/16 16:55:02;;;;;;;1.65;0.40;;;;;;;15.79;58.02;99513.91;10229865;28;20668;-81
2022/09/16 17:00:05;;;;;;;1.38;0.77;;;;;;;15.48;58.74;99512.00;10237789;28;20110;-75
2022/09/16 17:05:07;;;;;;;1.85;0.32;;;;;;;15.46;58.96;99513.19;10245373;28;20510;-80
2022/09/16 17:10:09;;;;;;;0.88;0.40;;;;;;;15.50;59.67;99522.56;10247200;28;20061;-78
2022/09/16 17:15:10;;;;;;;0.90;0.32;;;;;;;15.47;58.94;99521.06;10269047;28;20067;-78
2022/09/16 17:20:12;;;;;;;0.60;0.10;;;;;;;15.45;58.69;99517.72;10262947;28;20065;-78
2022/09/16 17:25:13;;;;;;;1.23;0.20;;;;;;;15.51;57.67;99530.44;10251402;28;20065;-79
2022/09/16 17:30:15;;;;;;;1.00;0.20;;;;;;;15.51;57.68;99545.72;10243118;28;20498;-78
2022/09/16 17:35:17;;;;;;;1.08;0.28;;;;;;;15.45;57.41;99557.94;10236435;28;20047;-77
2022/09/16 17:40:21;;;;;;;0.73;0.25;;;;;;;15.25;55.59;99559.34;10231653;28;20058;-73
2022/09/16 17:45:34;;;;;;;1.10;0.50;;;;;;;14.87;55.87;99569.78;10223725;28;20191;-79
2022/09/16 17:50:38;;;;;;;1.95;0.20;;;;;;;14.86;57.25;99576.97;10226533;28;20059;-81
2022/09/16 17:55:42;;;;;;;0.60;0.30;;;;;;;15.04;57.44;99587.50;10214191;28;20058;-78
2022/09/16 18:00:43;;;;;;;2.15;0.63;;;;;;;14.97;56.70;99599.94;10240253;28;20046;-78
2022/09/16 18:06:05;;;;;;;2.08;0.40;;;;;;;14.99;59.34;99598.72;10237276;28;20544;-81
2022/09/16 18:11:08;;;;;;;1.10;0.50;;;;;;;14.80;59.19;99605.28;10245433;28;20054;-76
2022/09/16 18:16:15;;;;;;;1.50;0.50;;;;;;;14.72;60.68;99605.25;10245922;28;20051;-75
2022/09/16 18:21:18;;;;;;;1.52;0.40;;;;;;;14.89;60.00;99603.41;10231474;28;20256;-76
2022/09/16 18:26:20;;;;;;;2.27;0.70;;;;;;;14.99;59.28;99609.44;10234480;28;20059;-73
2022/09/16 18:31:22;;;;;;;2.13;1.33;;;;;;;14.92;57.93;99608.47;10230247;28;20047;-73
2022/09/16 18:36:28;;;;;;;1.95;0.40;;;;;;;14.77;58.47;99613.66;10232776;28;20994;-71
2022/09/16 18:41:34;;;;;;;1.65;0.57;;;;;;;14.78;59.23;99631.38;10228480;28;20050;-72
2022/09/16 18:46:37;;;;;;;0.82;0.40;;;;;;;14.76;60.70;99622.69;10226610;28;20054;-74
2022/09/16 18:51:40;;;;;;;1.70;0.70;;;;;;;14.78;58.50;99630.56;10222303;28;20574;-75
2022/09/16 18:56:42;;;;;;;1.85;0.40;;;;;;;14.79;59.40;99637.59;10189202;28;20547;-76
2022/09/16 19:01:47;;;;;;;1.70;0.55;;;;;;;14.70;59.24;99635.88;10190091;28;20549;-75
2022/09/16 19:06:52;;;;;;;1.60;0.88;;;;;;;14.53;59.35;99640.34;10188701;28;20134;-73
2022/09/16 19:11:53;;;;;;;1.92;0.50;;;;;;;14.44;60.06;99644.84;10227522;28;20043;-74
2022/09/16 19:16:55;;;;;;;1.70;0.88;;;;;;;14.24;60.11;99642.44;10228843;28;20474;-73
2022/09/16 19:21:56;;;;;;;1.17;0.50;;;;;;;14.15;60.11;99630.03;10229281;28;20062;-74
2022/09/16 19:26:57;;;;;;;1.90;0.65;;;;;;;13.89;60.83;99643.50;10270787;28;20046;-75
2022/09/16 19:31:59;;;;;;;1.02;0.45;;;;;;;13.83;61.60;99630.75;10234469;28;20061;-73
2022/09/16 19:37:00;;;;;;;1.30;0.60;;;;;;;13.88;61.17;99625.75;10234389;28;20050;-75
2022/09/16 19:42:02;;;;;;;1.38;0.40;;;;;;;13.79;60.94;99632.91;10237049;28;20086;-75
2022/09/16 19:47:04;;;;;;;2.22;0.50;;;;;;;13.58;62.31;99631.44;10247441;28;20081;-74
2022/09/16 19:52:05;;;;;;;2.22;0.63;;;;;;;13.63;63.00;99644.38;10230583;28;20055;-74
2022/09/16 19:57:06;;;;;;;1.60;0.50;;;;;;;13.66;63.39;99648.53;10250274;28;20482;-75
2022/09/16 20:02:09;;;;;;;0.90;0.50;;;;;;;13.68;62.67;99642.03;10245953;28;20051;-77
2022/09/16 20:07:15;;;;;;;0.75;0.45;;;;;;;13.73;63.43;99637.03;10273033;28;20138;-74
2022/09/16 20:12:17;;;;;;;1.63;0.43;;;;;;;13.69;63.16;99634.84;10241364;28;20066;-76
2022/09/16 20:17:18;;;;;;;0.98;0.65;;;;;;;13.58;63.94;99641.31;10240099;28;20047;-76
2022/09/16 20:22:20;;;;;;;4.30;0.70;;;;;;;13.63;63.67;99646.19;10237847;28;20055;-79
2022/09/16 20:27:21;;;;;;;1.48;0.50;;;;;;;13.63;63.70;99644.38;10237185;28;20135;-74
2022/09/16 20:32:23;;;;;;;1.35;0.68;;;;;;;13.74;62.80;99662.81;10237626;28;20051;-76
2022/09/16 20:37:24;;;;;;;1.77;0.50;;;;;;;13.72;63.17;99670.16;10243096;28;20066;-74
2022/09/16 20:42:25;;;;;;;2.83;0.50;;;;;;;13.68;63.27;99658.09;10248460;28;20059;-74
2022/09/16 20:47:29;;;;;;;1.20;0.40;;;;;;;13.83;63.09;99676.25;10244288;28;20184;-77
2022/09/16 20:52:32;;;;;;;1.33;0.53;;;;;;;13.79;62.65;99678.38;10256636;28;20071;-78
2022/09/16 20:57:33;;;;;;;1.88;0.85;;;;;;;13.81;62.58;99680.88;10241843;28;20066;-77
2022/09/16 21:02:34;;;;;;;2.67;0.55;;;;;;;13.71;62.63;99683.69;10244704;28;20051;-77
2022/09/16 21:07:36;;;;;;;2.47;0.70;;;;;;;13.66;62.97;99697.53;10237327;28;20043;-75
2022/09/16 21:12:37;;;;;;;2.15;0.55;;;;;;;13.69;63.21;99694.53;10242604;28;20047;-76
2022/09/16 21:17:38;;;;;;;2.92;0.70;;;;;;;13.78;62.63;99690.91;10235860;28;20062;-77
2022/09/16 21:22:43;;;;;;;2.30;0.60;;;;;;;13.70;62.15;99696.19;10235129;28;20501;-75
2022/09/16 21:27:44;;;;;;;4.30;1.83;;;;;;;13.57;62.34;99685.06;10239653;28;20533;-75
2022/09/16 21:32:46;;;;;;;2.67;0.77;;;;;;;13.24;63.13;99682.13;10238819;28;20070;-76
2022/09/16 21:37:47;;;;;;;2.42;1.02;;;;;;;13.23;63.93;99685.81;10236130;28;20058;-75
2022/09/16 21:42:48;;;;;;;3.78;0.85;;;;;;;13.22;62.98;99697.50;10237518;28;20121;-75
2022/09/16 21:47:51;;;;;;;3.30;0.90;;;;;;;13.29;63.57;99706.56;10246269;28;20059;-75
2022/09/16 21:52:53;;;;;;;1.85;0.88;;;;;;;13.29;63.44;99711.94;10235399;28;20742;-75
2022/09/16 21:57:54;;;;;;;2.95;0.68;;;;;;;13.18;63.92;99704.13;10237668;28;20046;-76
2022/09/16 22:02:56;;;;;;;4.05;1.05;;;;;;;13.17;64.26;99702.47;10230642;28;20450;-76
2022/09/16 22:08:01;;;;;;;2.65;1.30;;;;;;;13.19;64.25;99708.50;10241150;28;20055;-76
2022/09/16 22:13:03;;;;;;;2.42;0.90;;;;;;;13.28;63.81;99723.59;10234044;28;20180;-76
2022/09/16 22:18:04;;;;;;;2.28;0.90;;;;;;;13.26;64.18;99712.22;10193303;28;1290861;-75
2022/09/16 22:23:05;;;;;;;3.15;0.95;;;;;;;13.19;64.85;99719.19;10238459;28;20180;-76
2022/09/16 22:28:07;;;;;;;2.80;1.17;;;;;;;13.16;64.48;99723.00;10240132;28;20518;-76
2022/09/16 22:33:08;;;;;;;4.45;1.33;;;;;;;13.06;65.17;99712.41;10281899;28;20641;-78
2022/09/16 22:38:09;;;;;;;3.70;1.30;;;;;;;13.07;64.92;99722.06;10242426;28;20058;-78
2022/09/16 22:43:11;;;;;;;3.55;2.10;;;;;;;13.00;65.04;99720.16;10237071;28;20050;-76
2022/09/16 22:48:12;;;;;;;3.25;2.30;;;;;;;13.04;65.17;99719.72;10238544;28;20051;-77
2022/09/16 22:53:13;;;;;;;3.30;1.35;;;;;;;13.01;65.13;99703.16;10240306;28;20692;-77
2022/09/16 22:58:14;;;;;;;3.83;1.05;;;;;;;13.11;64.80;99705.75;10241850;28;20090;-77
2022/09/16 23:03:17;;;;;;;4.63;1.73;;;;;;;13.17;65.37;99705.16;10238597;28;20050;-75
2022/09/16 23:08:18;;;;;;;7.47;2.15;;;;;;;13.08;65.21;99698.88;10238924;28;21141;-74
2022/09/16 23:13:20;;;;;;;6.45;1.58;;;;;;;12.99;65.42;99697.97;10239240;28;20054;-76
2022/09/16 23:18:22;;;;;;;1.88;1.17;;;;;;;12.84;66.03;99702.16;10235406;28;20487;-75
2022/09/16 23:23:23;;;;;;;3.08;0.90;;;;;;;12.67;65.86;99699.31;10241345;28;20478;-77
2022/09/16 23:28:25;;;;;;;2.65;1.10;;;;;;;12.61;66.68;99697.25;10247524;28;20051;-77
2022/09/16 23:33:27;;;;;;;4.18;1.27;;;;;;;12.61;66.42;99691.06;10278759;28;20055;-75
2022/09/16 23:38:29;;;;;;;2.72;1.10;;;;;;;12.58;66.36;99700.22;10242538;28;20541;-76
2022/09/16 23:43:30;;;;;;;4.10;1.50;;;;;;;12.52;67.02;99698.13;10236438;28;20051;-75
2022/09/16 23:48:32;;;;;;;2.85;1.10;;;;;;;12.57;66.47;99690.53;10236433;28;20054;-75